Aérodrome :
LOGIN :

S'inscrire | Disclaimer

   EN    FR    IT 

 










Légende :    VFR   VFR Marginal   IFR   IFR Intensif   IFR Très Intensif
Visi : 
Plafond : 
>= 8 km
>= 3000ft
5 à 8 km
1000 à 3000 ft
1500m à 5 km
500 à 1000 ft
800 à 1500m
200 à 500 ft
< 800m
< 200 ft
Symboles :   Orages  Brouillard  Fortes neiges  Fortes précipitations  Vent > 20 kt
SIGMETs :   Divers  Orages  Givrage  Turbulence  Onde Orograph.  Cendres Volcan.







- Altitude de l'aérodrome : 80 ft
- Code IATA : LPL
- Voir les cartes d'approche


EGGP - Liverpool John Lennon

DERNIER METAR :
  • 261550Z 28021KT 9999 FEW025 BKN049 16/09 Q1011

METARs EXPIRÉS :
  • 261520Z 28019KT 9999 FEW026 SCT036 16/08 Q1011
  • 261450Z 28022KT 9999 SCT049 15/08 Q1011
  • 261420Z 28022KT 9999 SCT033 17/09 Q1011
  • 261350Z 29023KT 9999 SCT033 15/08 Q1011
  • 261320Z 29022KT 9999 SCT024 15/09 Q1011

TAF TAF EGGP
Valide du 26 à 12h jusqu'au 27 à 12h UTC


261057Z 2612/2712 28017G27KT 9999 SCT020
BECMG 2618/2621 27012KT
TEMPO 2703/2712 28015G25KT 6000 SHRA BKN014
ATIS : +44 151 907 2000 (option 5 or ext 5150)
Météo : +44 871 750 5150
Pas de NOTAMs connus pour ce terrain.
1 SIGMET publié pour la FIR London (EGTT) :
 
Onde orographique forte
EGTT SIGMET 01 VALID 261540/261900 EGRR
EGTT LONDON FIR SEV MTW FCST N OF LINE N5350 W00530 - N5306 E00322 FL030/150 STNR NC=



MET'MAP, la Météo Aéronautique d'un coup d'oeil ! - Copyright ORBIFLY Décembre 2007 - Disclaimer

ORBIFLY MET'MAP TEAM :

Programmation & Développement : Alexandra Zaïnal
Conception & Développement : Baudouin d'Aumeries
Co-Programmation & Développement : Marc-Olivier Méhu
Soutien technique & logistique : Manuel Goepfert

Contact : metmap@orbifly.com




SOURCES & CREDITS :

   NOAA